sensor_id;sensor_type;location;lat;lon;timestamp;P1;durP1;ratioP1;P2;durP2;ratioP2
35324;SDS011;35135;47.510;19.036;2023-05-07T00:02:06;3.60;;;3.30;;
35324;SDS011;35135;47.510;19.036;2023-05-07T00:04:32;3.90;;;3.60;;
35324;SDS011;35135;47.510;19.036;2023-05-07T00:07:02;4.07;;;3.72;;
35324;SDS011;35135;47.510;19.036;2023-05-07T00:09:27;3.58;;;3.28;;
35324;SDS011;35135;47.510;19.036;2023-05-07T00:11:53;4.85;;;3.45;;
35324;SDS011;35135;47.510;19.036;2023-05-07T00:14:19;3.47;;;3.17;;
35324;SDS011;35135;47.510;19.036;2023-05-07T00:16:45;4.03;;;3.63;;
35324;SDS011;35135;47.510;19.036;2023-05-07T00:19:10;3.38;;;2.97;;
35324;SDS011;35135;47.510;19.036;2023-05-07T00:21:36;3.88;;;3.40;;
35324;SDS011;35135;47.510;19.036;2023-05-07T00:24:02;4.20;;;3.33;;
35324;SDS011;35135;47.510;19.036;2023-05-07T00:26:28;3.10;;;2.78;;
35324;SDS011;35135;47.510;19.036;2023-05-07T00:28:54;4.15;;;3.35;;
35324;SDS011;35135;47.510;19.036;2023-05-07T00:31:19;3.63;;;3.15;;
35324;SDS011;35135;47.510;19.036;2023-05-07T00:33:45;4.07;;;3.15;;
35324;SDS011;35135;47.510;19.036;2023-05-07T00:36:11;4.60;;;3.60;;
35324;SDS011;35135;47.510;19.036;2023-05-07T00:38:37;3.67;;;3.10;;
35324;SDS011;35135;47.510;19.036;2023-05-07T00:41:02;4.22;;;3.60;;
35324;SDS011;35135;47.510;19.036;2023-05-07T00:43:28;5.05;;;3.67;;
35324;SDS011;35135;47.510;19.036;2023-05-07T00:45:54;4.50;;;3.42;;
35324;SDS011;35135;47.510;19.036;2023-05-07T00:48:20;3.35;;;3.05;;
35324;SDS011;35135;47.510;19.036;2023-05-07T00:50:46;4.88;;;3.70;;
35324;SDS011;35135;47.510;19.036;2023-05-07T00:53:13;3.50;;;3.20;;
35324;SDS011;35135;47.510;19.036;2023-05-07T00:55:39;4.03;;;3.20;;
35324;SDS011;35135;47.510;19.036;2023-05-07T00:58:05;3.63;;;3.33;;
35324;SDS011;35135;47.510;19.036;2023-05-07T01:00:31;3.78;;;3.42;;
35324;SDS011;35135;47.510;19.036;2023-05-07T01:02:57;3.70;;;3.40;;
35324;SDS011;35135;47.510;19.036;2023-05-07T01:05:23;4.03;;;3.63;;
35324;SDS011;35135;47.510;19.036;2023-05-07T01:07:50;4.05;;;3.15;;
35324;SDS011;35135;47.510;19.036;2023-05-07T01:10:18;3.42;;;3.13;;
35324;SDS011;35135;47.510;19.036;2023-05-07T01:12:44;5.13;;;3.20;;
35324;SDS011;35135;47.510;19.036;2023-05-07T01:15:12;3.47;;;3.10;;
35324;SDS011;35135;47.510;19.036;2023-05-07T01:17:39;3.72;;;3.38;;
35324;SDS011;35135;47.510;19.036;2023-05-07T01:20:06;3.75;;;3.17;;
35324;SDS011;35135;47.510;19.036;2023-05-07T01:22:36;3.47;;;3.17;;
35324;SDS011;35135;47.510;19.036;2023-05-07T01:25:04;3.20;;;2.90;;
35324;SDS011;35135;47.510;19.036;2023-05-07T01:27:30;3.40;;;3.10;;
35324;SDS011;35135;47.510;19.036;2023-05-07T01:29:56;3.20;;;2.80;;
35324;SDS011;35135;47.510;19.036;2023-05-07T01:32:24;3.22;;;2.92;;
35324;SDS011;35135;47.510;19.036;2023-05-07T01:35:02;4.10;;;3.50;;
35324;SDS011;35135;47.510;19.036;2023-05-07T01:37:32;3.40;;;3.10;;
35324;SDS011;35135;47.510;19.036;2023-05-07T01:39:58;3.53;;;3.22;;
35324;SDS011;35135;47.510;19.036;2023-05-07T01:42:25;3.05;;;2.75;;
35324;SDS011;35135;47.510;19.036;2023-05-07T01:44:51;3.40;;;3.10;;
35324;SDS011;35135;47.510;19.036;2023-05-07T01:47:17;3.05;;;2.75;;
35324;SDS011;35135;47.510;19.036;2023-05-07T01:49:43;3.83;;;3.08;;
35324;SDS011;35135;47.510;19.036;2023-05-07T01:52:10;2.83;;;2.58;;
35324;SDS011;35135;47.510;19.036;2023-05-07T01:54:36;3.45;;;2.92;;
35324;SDS011;35135;47.510;19.036;2023-05-07T01:57:02;3.30;;;3.00;;
35324;SDS011;35135;47.510;19.036;2023-05-07T01:59:28;3.05;;;2.85;;
35324;SDS011;35135;47.510;19.036;2023-05-07T02:01:53;3.33;;;3.03;;
35324;SDS011;35135;47.510;19.036;2023-05-07T02:04:19;3.17;;;2.88;;
35324;SDS011;35135;47.510;19.036;2023-05-07T02:06:45;3.00;;;2.80;;
35324;SDS011;35135;47.510;19.036;2023-05-07T02:09:11;3.03;;;2.72;;
35324;SDS011;35135;47.510;19.036;2023-05-07T02:11:36;3.10;;;2.80;;
35324;SDS011;35135;47.510;19.036;2023-05-07T02:14:02;3.55;;;2.85;;
35324;SDS011;35135;47.510;19.036;2023-05-07T02:16:28;3.60;;;2.97;;
35324;SDS011;35135;47.510;19.036;2023-05-07T02:18:53;2.78;;;2.58;;
35324;SDS011;35135;47.510;19.036;2023-05-07T02:21:19;4.03;;;3.05;;
35324;SDS011;35135;47.510;19.036;2023-05-07T02:23:45;3.15;;;2.85;;
35324;SDS011;35135;47.510;19.036;2023-05-07T02:26:11;2.83;;;2.63;;
35324;SDS011;35135;47.510;19.036;2023-05-07T02:28:36;3.10;;;2.80;;
35324;SDS011;35135;47.510;19.036;2023-05-07T02:31:05;3.45;;;3.15;;
35324;SDS011;35135;47.510;19.036;2023-05-07T02:33:31;4.13;;;2.80;;
35324;SDS011;35135;47.510;19.036;2023-05-07T02:36:05;3.03;;;2.72;;
35324;SDS011;35135;47.510;19.036;2023-05-07T02:38:32;3.38;;;3.05;;
35324;SDS011;35135;47.510;19.036;2023-05-07T02:40:57;2.95;;;2.50;;
35324;SDS011;35135;47.510;19.036;2023-05-07T02:43:23;3.10;;;2.75;;
35324;SDS011;35135;47.510;19.036;2023-05-07T02:45:49;3.25;;;2.53;;
35324;SDS011;35135;47.510;19.036;2023-05-07T02:48:15;3.22;;;2.70;;
35324;SDS011;35135;47.510;19.036;2023-05-07T02:50:40;3.10;;;2.70;;
35324;SDS011;35135;47.510;19.036;2023-05-07T02:53:06;3.10;;;2.72;;
35324;SDS011;35135;47.510;19.036;2023-05-07T02:55:31;2.47;;;2.28;;
35324;SDS011;35135;47.510;19.036;2023-05-07T02:57:57;3.42;;;2.90;;
35324;SDS011;35135;47.510;19.036;2023-05-07T03:00:23;3.10;;;2.80;;
35324;SDS011;35135;47.510;19.036;2023-05-07T03:02:49;2.60;;;2.40;;
35324;SDS011;35135;47.510;19.036;2023-05-07T03:05:14;2.95;;;2.65;;
35324;SDS011;35135;47.510;19.036;2023-05-07T03:07:40;3.40;;;2.70;;
35324;SDS011;35135;47.510;19.036;2023-05-07T03:10:10;4.13;;;2.80;;
35324;SDS011;35135;47.510;19.036;2023-05-07T03:12:35;2.53;;;2.33;;
35324;SDS011;35135;47.510;19.036;2023-05-07T03:15:01;3.00;;;2.75;;
35324;SDS011;35135;47.510;19.036;2023-05-07T03:17:27;3.03;;;2.40;;
35324;SDS011;35135;47.510;19.036;2023-05-07T03:19:52;2.85;;;2.65;;
35324;SDS011;35135;47.510;19.036;2023-05-07T03:22:18;3.08;;;2.40;;
35324;SDS011;35135;47.510;19.036;2023-05-07T03:24:44;2.80;;;2.50;;
35324;SDS011;35135;47.510;19.036;2023-05-07T03:27:09;3.40;;;2.38;;
35324;SDS011;35135;47.510;19.036;2023-05-07T03:29:35;2.55;;;2.35;;
35324;SDS011;35135;47.510;19.036;2023-05-07T03:32:01;3.13;;;2.45;;
35324;SDS011;35135;47.510;19.036;2023-05-07T03:34:26;2.60;;;2.38;;
35324;SDS011;35135;47.510;19.036;2023-05-07T03:36:52;2.50;;;2.30;;
35324;SDS011;35135;47.510;19.036;2023-05-07T03:39:17;2.65;;;2.25;;
35324;SDS011;35135;47.510;19.036;2023-05-07T03:41:43;3.88;;;2.67;;
35324;SDS011;35135;47.510;19.036;2023-05-07T03:44:09;2.70;;;2.42;;
35324;SDS011;35135;47.510;19.036;2023-05-07T03:46:34;3.08;;;2.28;;
35324;SDS011;35135;47.510;19.036;2023-05-07T03:49:00;3.65;;;2.60;;
35324;SDS011;35135;47.510;19.036;2023-05-07T03:51:26;2.90;;;2.63;;
35324;SDS011;35135;47.510;19.036;2023-05-07T03:53:52;3.13;;;2.70;;
35324;SDS011;35135;47.510;19.036;2023-05-07T03:56:18;2.72;;;2.28;;
35324;SDS011;35135;47.510;19.036;2023-05-07T03:58:44;3.47;;;2.15;;
35324;SDS011;35135;47.510;19.036;2023-05-07T04:01:10;2.97;;;2.60;;
35324;SDS011;35135;47.510;19.036;2023-05-07T04:03:36;3.10;;;2.67;;
35324;SDS011;35135;47.510;19.036;2023-05-07T04:06:02;2.60;;;2.40;;
35324;SDS011;35135;47.510;19.036;2023-05-07T04:08:28;2.38;;;2.17;;
35324;SDS011;35135;47.510;19.036;2023-05-07T04:10:57;3.05;;;2.42;;
35324;SDS011;35135;47.510;19.036;2023-05-07T04:13:23;2.50;;;2.30;;
35324;SDS011;35135;47.510;19.036;2023-05-07T04:15:50;2.63;;;2.40;;
35324;SDS011;35135;47.510;19.036;2023-05-07T04:18:16;3.33;;;2.40;;
35324;SDS011;35135;47.510;19.036;2023-05-07T04:20:41;3.17;;;2.58;;
35324;SDS011;35135;47.510;19.036;2023-05-07T04:23:07;2.70;;;2.33;;
35324;SDS011;35135;47.510;19.036;2023-05-07T04:25:33;2.95;;;2.65;;
35324;SDS011;35135;47.510;19.036;2023-05-07T04:27:59;3.28;;;2.75;;
35324;SDS011;35135;47.510;19.036;2023-05-07T04:30:25;3.58;;;2.97;;
35324;SDS011;35135;47.510;19.036;2023-05-07T04:32:51;3.40;;;3.10;;
35324;SDS011;35135;47.510;19.036;2023-05-07T04:35:17;4.10;;;3.80;;
35324;SDS011;35135;47.510;19.036;2023-05-07T04:37:44;4.63;;;3.45;;
35324;SDS011;35135;47.510;19.036;2023-05-07T04:40:09;4.10;;;2.95;;
35324;SDS011;35135;47.510;19.036;2023-05-07T04:42:35;3.33;;;3.03;;
35324;SDS011;35135;47.510;19.036;2023-05-07T04:45:01;3.60;;;3.28;;
35324;SDS011;35135;47.510;19.036;2023-05-07T04:47:27;4.03;;;3.20;;
35324;SDS011;35135;47.510;19.036;2023-05-07T04:49:53;3.70;;;3.40;;
35324;SDS011;35135;47.510;19.036;2023-05-07T04:52:19;3.88;;;3.47;;
35324;SDS011;35135;47.510;19.036;2023-05-07T04:54:45;3.58;;;3.20;;
35324;SDS011;35135;47.510;19.036;2023-05-07T04:57:10;3.15;;;2.85;;
35324;SDS011;35135;47.510;19.036;2023-05-07T04:59:36;3.22;;;2.92;;
35324;SDS011;35135;47.510;19.036;2023-05-07T05:02:02;3.80;;;3.30;;
35324;SDS011;35135;47.510;19.036;2023-05-07T05:04:29;3.50;;;3.20;;
35324;SDS011;35135;47.510;19.036;2023-05-07T05:06:55;3.88;;;3.58;;
35324;SDS011;35135;47.510;19.036;2023-05-07T05:09:20;3.83;;;3.10;;
35324;SDS011;35135;47.510;19.036;2023-05-07T05:11:46;4.43;;;3.97;;
35324;SDS011;35135;47.510;19.036;2023-05-07T05:14:12;4.05;;;3.53;;
35324;SDS011;35135;47.510;19.036;2023-05-07T05:16:38;4.35;;;3.95;;
35324;SDS011;35135;47.510;19.036;2023-05-07T05:19:03;4.32;;;3.80;;
35324;SDS011;35135;47.510;19.036;2023-05-07T05:21:31;4.18;;;3.45;;
35324;SDS011;35135;47.510;19.036;2023-05-07T05:23:57;4.10;;;3.70;;
35324;SDS011;35135;47.510;19.036;2023-05-07T05:26:23;3.90;;;3.47;;
35324;SDS011;35135;47.510;19.036;2023-05-07T05:28:48;4.32;;;3.92;;
35324;SDS011;35135;47.510;19.036;2023-05-07T05:31:15;5.72;;;4.32;;
35324;SDS011;35135;47.510;19.036;2023-05-07T05:33:41;5.22;;;3.55;;
35324;SDS011;35135;47.510;19.036;2023-05-07T05:36:09;5.25;;;4.40;;
35324;SDS011;35135;47.510;19.036;2023-05-07T05:38:35;4.82;;;4.18;;
35324;SDS011;35135;47.510;19.036;2023-05-07T05:41:01;4.28;;;3.88;;
35324;SDS011;35135;47.510;19.036;2023-05-07T05:43:26;4.95;;;4.45;;
35324;SDS011;35135;47.510;19.036;2023-05-07T05:45:52;4.57;;;4.18;;
35324;SDS011;35135;47.510;19.036;2023-05-07T05:48:18;4.30;;;3.90;;
35324;SDS011;35135;47.510;19.036;2023-05-07T05:50:43;4.25;;;3.83;;
35324;SDS011;35135;47.510;19.036;2023-05-07T05:53:09;6.50;;;4.47;;
35324;SDS011;35135;47.510;19.036;2023-05-07T05:55:35;4.60;;;3.78;;
35324;SDS011;35135;47.510;19.036;2023-05-07T05:58:00;4.47;;;4.07;;
35324;SDS011;35135;47.510;19.036;2023-05-07T06:00:27;4.80;;;3.90;;
35324;SDS011;35135;47.510;19.036;2023-05-07T06:02:52;4.88;;;4.47;;
35324;SDS011;35135;47.510;19.036;2023-05-07T06:05:18;4.22;;;3.83;;
35324;SDS011;35135;47.510;19.036;2023-05-07T06:07:44;6.28;;;5.50;;
35324;SDS011;35135;47.510;19.036;2023-05-07T06:10:10;4.50;;;4.10;;
35324;SDS011;35135;47.510;19.036;2023-05-07T06:12:35;5.38;;;4.35;;
35324;SDS011;35135;47.510;19.036;2023-05-07T06:15:02;5.93;;;4.47;;
35324;SDS011;35135;47.510;19.036;2023-05-07T06:17:28;4.18;;;3.88;;
35324;SDS011;35135;47.510;19.036;2023-05-07T06:19:54;4.18;;;3.78;;
35324;SDS011;35135;47.510;19.036;2023-05-07T06:22:19;4.70;;;4.30;;
35324;SDS011;35135;47.510;19.036;2023-05-07T06:24:45;4.28;;;3.88;;
35324;SDS011;35135;47.510;19.036;2023-05-07T06:27:11;7.57;;;4.82;;
35324;SDS011;35135;47.510;19.036;2023-05-07T06:29:37;6.03;;;4.90;;
35324;SDS011;35135;47.510;19.036;2023-05-07T06:32:06;5.75;;;4.97;;
35324;SDS011;35135;47.510;19.036;2023-05-07T06:34:36;4.75;;;4.35;;
35324;SDS011;35135;47.510;19.036;2023-05-07T06:37:06;5.85;;;4.50;;
35324;SDS011;35135;47.510;19.036;2023-05-07T06:39:32;5.65;;;3.92;;
35324;SDS011;35135;47.510;19.036;2023-05-07T06:41:59;6.40;;;4.18;;
35324;SDS011;35135;47.510;19.036;2023-05-07T06:44:26;5.90;;;4.10;;
35324;SDS011;35135;47.510;19.036;2023-05-07T06:46:52;5.05;;;4.22;;
35324;SDS011;35135;47.510;19.036;2023-05-07T06:49:18;4.40;;;4.00;;
35324;SDS011;35135;47.510;19.036;2023-05-07T06:51:43;5.57;;;3.97;;
35324;SDS011;35135;47.510;19.036;2023-05-07T06:54:09;5.43;;;3.88;;
35324;SDS011;35135;47.510;19.036;2023-05-07T06:56:35;8.15;;;4.45;;
35324;SDS011;35135;47.510;19.036;2023-05-07T06:59:01;8.38;;;4.43;;
35324;SDS011;35135;47.510;19.036;2023-05-07T07:01:28;8.80;;;4.32;;
35324;SDS011;35135;47.510;19.036;2023-05-07T07:03:54;9.13;;;4.82;;
35324;SDS011;35135;47.510;19.036;2023-05-07T07:06:19;7.50;;;3.90;;
35324;SDS011;35135;47.510;19.036;2023-05-07T07:08:45;7.70;;;3.85;;
35324;SDS011;35135;47.510;19.036;2023-05-07T07:11:11;12.23;;;4.63;;
35324;SDS011;35135;47.510;19.036;2023-05-07T07:13:37;21.58;;;4.72;;
35324;SDS011;35135;47.510;19.036;2023-05-07T07:16:03;8.80;;;3.70;;
35324;SDS011;35135;47.510;19.036;2023-05-07T07:18:28;12.23;;;3.90;;
35324;SDS011;35135;47.510;19.036;2023-05-07T07:20:54;12.52;;;3.55;;
35324;SDS011;35135;47.510;19.036;2023-05-07T07:23:20;10.18;;;3.65;;
35324;SDS011;35135;47.510;19.036;2023-05-07T07:25:45;8.75;;;4.07;;
35324;SDS011;35135;47.510;19.036;2023-05-07T07:28:11;11.73;;;4.25;;
35324;SDS011;35135;47.510;19.036;2023-05-07T07:30:37;6.97;;;3.58;;
35324;SDS011;35135;47.510;19.036;2023-05-07T07:33:03;8.27;;;3.50;;
35324;SDS011;35135;47.510;19.036;2023-05-07T07:35:30;6.70;;;3.53;;
35324;SDS011;35135;47.510;19.036;2023-05-07T07:37:59;6.55;;;3.70;;
35324;SDS011;35135;47.510;19.036;2023-05-07T07:40:25;6.72;;;3.70;;
35324;SDS011;35135;47.510;19.036;2023-05-07T07:42:51;7.10;;;4.05;;
35324;SDS011;35135;47.510;19.036;2023-05-07T07:45:17;9.52;;;3.80;;
35324;SDS011;35135;47.510;19.036;2023-05-07T07:47:43;4.05;;;3.08;;
35324;SDS011;35135;47.510;19.036;2023-05-07T07:50:10;5.70;;;3.70;;
35324;SDS011;35135;47.510;19.036;2023-05-07T07:52:35;9.48;;;3.60;;
35324;SDS011;35135;47.510;19.036;2023-05-07T07:55:01;4.55;;;3.20;;
35324;SDS011;35135;47.510;19.036;2023-05-07T07:57:28;6.63;;;3.13;;
35324;SDS011;35135;47.510;19.036;2023-05-07T07:59:53;3.10;;;2.80;;
35324;SDS011;35135;47.510;19.036;2023-05-07T08:02:19;8.00;;;3.38;;
35324;SDS011;35135;47.510;19.036;2023-05-07T08:04:45;3.22;;;2.53;;
35324;SDS011;35135;47.510;19.036;2023-05-07T08:07:11;3.33;;;2.78;;
35324;SDS011;35135;47.510;19.036;2023-05-07T08:09:37;4.85;;;3.05;;
35324;SDS011;35135;47.510;19.036;2023-05-07T08:12:03;4.28;;;3.03;;
35324;SDS011;35135;47.510;19.036;2023-05-07T08:14:30;3.03;;;2.72;;
35324;SDS011;35135;47.510;19.036;2023-05-07T08:16:56;3.25;;;2.53;;
35324;SDS011;35135;47.510;19.036;2023-05-07T08:19:22;4.65;;;3.10;;
35324;SDS011;35135;47.510;19.036;2023-05-07T08:21:48;3.40;;;2.45;;
35324;SDS011;35135;47.510;19.036;2023-05-07T08:24:14;3.75;;;2.47;;
35324;SDS011;35135;47.510;19.036;2023-05-07T08:26:40;3.83;;;2.88;;
35324;SDS011;35135;47.510;19.036;2023-05-07T08:29:06;4.60;;;2.78;;
35324;SDS011;35135;47.510;19.036;2023-05-07T08:31:32;3.40;;;3.10;;
35324;SDS011;35135;47.510;19.036;2023-05-07T08:33:58;2.67;;;2.30;;
35324;SDS011;35135;47.510;19.036;2023-05-07T08:36:24;2.85;;;2.45;;
35324;SDS011;35135;47.510;19.036;2023-05-07T08:38:50;2.83;;;2.25;;
35324;SDS011;35135;47.510;19.036;2023-05-07T08:41:16;3.13;;;2.50;;
35324;SDS011;35135;47.510;19.036;2023-05-07T08:43:42;2.97;;;2.53;;
35324;SDS011;35135;47.510;19.036;2023-05-07T08:46:13;3.97;;;2.33;;
35324;SDS011;35135;47.510;19.036;2023-05-07T08:51:13;3.13;;;2.30;;
35324;SDS011;35135;47.510;19.036;2023-05-07T08:53:40;2.85;;;2.10;;
35324;SDS011;35135;47.510;19.036;2023-05-07T08:56:07;2.78;;;2.15;;
35324;SDS011;35135;47.510;19.036;2023-05-07T08:58:34;2.65;;;2.40;;
35324;SDS011;35135;47.510;19.036;2023-05-07T09:01:03;4.35;;;2.35;;
35324;SDS011;35135;47.510;19.036;2023-05-07T09:03:36;2.97;;;2.55;;
35324;SDS011;35135;47.510;19.036;2023-05-07T09:06:03;2.35;;;1.92;;
35324;SDS011;35135;47.510;19.036;2023-05-07T09:08:29;5.28;;;2.35;;
35324;SDS011;35135;47.510;19.036;2023-05-07T09:10:54;3.90;;;2.38;;
35324;SDS011;35135;47.510;19.036;2023-05-07T09:13:20;3.33;;;2.25;;
35324;SDS011;35135;47.510;19.036;2023-05-07T09:15:46;3.08;;;2.40;;
35324;SDS011;35135;47.510;19.036;2023-05-07T09:18:12;3.55;;;2.15;;
35324;SDS011;35135;47.510;19.036;2023-05-07T09:20:39;2.22;;;1.90;;
35324;SDS011;35135;47.510;19.036;2023-05-07T09:23:06;3.28;;;2.40;;
35324;SDS011;35135;47.510;19.036;2023-05-07T09:25:33;4.90;;;2.72;;
35324;SDS011;35135;47.510;19.036;2023-05-07T09:28:01;2.53;;;2.30;;
35324;SDS011;35135;47.510;19.036;2023-05-07T09:30:28;4.03;;;2.25;;
35324;SDS011;35135;47.510;19.036;2023-05-07T09:32:55;2.75;;;2.30;;
35324;SDS011;35135;47.510;19.036;2023-05-07T09:35:21;4.68;;;2.20;;
35324;SDS011;35135;47.510;19.036;2023-05-07T09:37:49;2.47;;;1.92;;
35324;SDS011;35135;47.510;19.036;2023-05-07T09:40:28;4.13;;;2.55;;
35324;SDS011;35135;47.510;19.036;2023-05-07T09:42:55;2.63;;;2.25;;
35324;SDS011;35135;47.510;19.036;2023-05-07T09:45:27;2.80;;;2.20;;
35324;SDS011;35135;47.510;19.036;2023-05-07T09:47:54;2.97;;;2.20;;
35324;SDS011;35135;47.510;19.036;2023-05-07T09:50:25;2.92;;;2.33;;
35324;SDS011;35135;47.510;19.036;2023-05-07T09:52:53;2.67;;;2.20;;
35324;SDS011;35135;47.510;19.036;2023-05-07T09:55:20;2.45;;;1.90;;
35324;SDS011;35135;47.510;19.036;2023-05-07T09:57:48;3.05;;;2.60;;
35324;SDS011;35135;47.510;19.036;2023-05-07T10:00:15;4.30;;;2.40;;
35324;SDS011;35135;47.510;19.036;2023-05-07T10:02:44;3.15;;;2.55;;
35324;SDS011;35135;47.510;19.036;2023-05-07T10:05:13;4.10;;;2.20;;
35324;SDS011;35135;47.510;19.036;2023-05-07T10:07:40;2.75;;;2.17;;
35324;SDS011;35135;47.510;19.036;2023-05-07T10:10:06;2.38;;;2.00;;
35324;SDS011;35135;47.510;19.036;2023-05-07T10:12:33;2.58;;;2.38;;
35324;SDS011;35135;47.510;19.036;2023-05-07T10:15:06;2.97;;;2.40;;
35324;SDS011;35135;47.510;19.036;2023-05-07T10:17:36;2.83;;;2.25;;
35324;SDS011;35135;47.510;19.036;2023-05-07T10:20:03;3.10;;;2.65;;
35324;SDS011;35135;47.510;19.036;2023-05-07T10:22:31;2.90;;;2.30;;
35324;SDS011;35135;47.510;19.036;2023-05-07T10:25:03;2.50;;;2.30;;
35324;SDS011;35135;47.510;19.036;2023-05-07T10:27:38;3.83;;;2.75;;
35324;SDS011;35135;47.510;19.036;2023-05-07T10:32:45;3.92;;;2.42;;
35324;SDS011;35135;47.510;19.036;2023-05-07T10:35:19;2.85;;;2.55;;
35324;SDS011;35135;47.510;19.036;2023-05-07T10:37:48;2.78;;;2.50;;
35324;SDS011;35135;47.510;19.036;2023-05-07T10:40:14;2.75;;;2.55;;
35324;SDS011;35135;47.510;19.036;2023-05-07T10:43:02;2.78;;;2.03;;
35324;SDS011;35135;47.510;19.036;2023-05-07T10:45:30;2.75;;;2.33;;
35324;SDS011;35135;47.510;19.036;2023-05-07T10:50:32;2.97;;;2.55;;
35324;SDS011;35135;47.510;19.036;2023-05-07T10:55:42;3.35;;;2.78;;
35324;SDS011;35135;47.510;19.036;2023-05-07T11:00:46;2.78;;;2.10;;
35324;SDS011;35135;47.510;19.036;2023-05-07T11:03:12;2.47;;;2.10;;
35324;SDS011;35135;47.510;19.036;2023-05-07T11:05:40;2.47;;;2.03;;
35324;SDS011;35135;47.510;19.036;2023-05-07T11:08:06;2.92;;;1.98;;
35324;SDS011;35135;47.510;19.036;2023-05-07T11:10:54;2.42;;;2.15;;
35324;SDS011;35135;47.510;19.036;2023-05-07T11:16:16;2.47;;;2.17;;
35324;SDS011;35135;47.510;19.036;2023-05-07T11:18:50;2.72;;;2.17;;
35324;SDS011;35135;47.510;19.036;2023-05-07T11:24:04;2.85;;;2.33;;
35324;SDS011;35135;47.510;19.036;2023-05-07T11:26:40;2.50;;;2.30;;
35324;SDS011;35135;47.510;19.036;2023-05-07T11:29:24;2.72;;;2.00;;
35324;SDS011;35135;47.510;19.036;2023-05-07T11:31:51;2.60;;;2.05;;
35324;SDS011;35135;47.510;19.036;2023-05-07T11:34:21;3.53;;;2.40;;
35324;SDS011;35135;47.510;19.036;2023-05-07T11:36:48;2.42;;;2.08;;
35324;SDS011;35135;47.510;19.036;2023-05-07T11:39:24;2.65;;;2.45;;
35324;SDS011;35135;47.510;19.036;2023-05-07T11:41:51;2.08;;;1.95;;
35324;SDS011;35135;47.510;19.036;2023-05-07T11:44:16;2.50;;;2.30;;
35324;SDS011;35135;47.510;19.036;2023-05-07T11:46:43;2.88;;;2.20;;
35324;SDS011;35135;47.510;19.036;2023-05-07T11:49:10;2.22;;;2.00;;
35324;SDS011;35135;47.510;19.036;2023-05-07T11:51:36;2.50;;;2.30;;
35324;SDS011;35135;47.510;19.036;2023-05-07T11:54:03;2.42;;;2.22;;
35324;SDS011;35135;47.510;19.036;2023-05-07T11:56:33;3.35;;;2.40;;
35324;SDS011;35135;47.510;19.036;2023-05-07T11:59:00;2.33;;;2.10;;
35324;SDS011;35135;47.510;19.036;2023-05-07T12:01:26;2.60;;;2.25;;
35324;SDS011;35135;47.510;19.036;2023-05-07T12:03:51;2.88;;;2.47;;
35324;SDS011;35135;47.510;19.036;2023-05-07T12:06:17;2.60;;;1.98;;
35324;SDS011;35135;47.510;19.036;2023-05-07T12:08:44;2.25;;;2.05;;
35324;SDS011;35135;47.510;19.036;2023-05-07T12:11:15;2.22;;;2.03;;
35324;SDS011;35135;47.510;19.036;2023-05-07T12:13:43;2.33;;;2.13;;
35324;SDS011;35135;47.510;19.036;2023-05-07T12:16:09;2.38;;;2.00;;
35324;SDS011;35135;47.510;19.036;2023-05-07T12:18:35;2.33;;;2.13;;
35324;SDS011;35135;47.510;19.036;2023-05-07T12:21:02;2.13;;;1.92;;
35324;SDS011;35135;47.510;19.036;2023-05-07T12:23:29;2.28;;;2.08;;
35324;SDS011;35135;47.510;19.036;2023-05-07T12:25:55;2.88;;;2.10;;
35324;SDS011;35135;47.510;19.036;2023-05-07T12:28:20;2.22;;;2.03;;
35324;SDS011;35135;47.510;19.036;2023-05-07T12:30:47;2.70;;;2.47;;
35324;SDS011;35135;47.510;19.036;2023-05-07T12:33:19;2.47;;;2.28;;
35324;SDS011;35135;47.510;19.036;2023-05-07T12:35:48;2.88;;;2.13;;
35324;SDS011;35135;47.510;19.036;2023-05-07T12:38:15;2.95;;;2.50;;
35324;SDS011;35135;47.510;19.036;2023-05-07T12:43:15;2.25;;;2.05;;
35324;SDS011;35135;47.510;19.036;2023-05-07T12:45:42;2.30;;;2.10;;
35324;SDS011;35135;47.510;19.036;2023-05-07T12:48:09;2.20;;;2.00;;
35324;SDS011;35135;47.510;19.036;2023-05-07T12:50:35;2.53;;;2.33;;
35324;SDS011;35135;47.510;19.036;2023-05-07T12:53:04;2.58;;;2.00;;
35324;SDS011;35135;47.510;19.036;2023-05-07T12:55:31;2.30;;;2.10;;
35324;SDS011;35135;47.510;19.036;2023-05-07T12:58:00;2.45;;;2.00;;
35324;SDS011;35135;47.510;19.036;2023-05-07T13:00:33;2.00;;;1.80;;
35324;SDS011;35135;47.510;19.036;2023-05-07T13:03:00;2.10;;;1.90;;
35324;SDS011;35135;47.510;19.036;2023-05-07T13:05:25;3.53;;;1.92;;
35324;SDS011;35135;47.510;19.036;2023-05-07T13:07:55;2.17;;;1.98;;
35324;SDS011;35135;47.510;19.036;2023-05-07T13:10:21;2.60;;;2.38;;
35324;SDS011;35135;47.510;19.036;2023-05-07T13:12:48;2.45;;;2.17;;
35324;SDS011;35135;47.510;19.036;2023-05-07T13:15:14;1.95;;;1.83;;
35324;SDS011;35135;47.510;19.036;2023-05-07T13:17:40;2.13;;;1.95;;
35324;SDS011;35135;47.510;19.036;2023-05-07T13:20:05;2.10;;;1.90;;
35324;SDS011;35135;47.510;19.036;2023-05-07T13:22:33;2.63;;;1.98;;
35324;SDS011;35135;47.510;19.036;2023-05-07T13:24:58;2.05;;;1.95;;
35324;SDS011;35135;47.510;19.036;2023-05-07T13:27:24;1.88;;;1.77;;
35324;SDS011;35135;47.510;19.036;2023-05-07T13:29:51;3.08;;;1.90;;
35324;SDS011;35135;47.510;19.036;2023-05-07T13:32:16;1.80;;;1.70;;
35324;SDS011;35135;47.510;19.036;2023-05-07T13:34:42;2.22;;;2.03;;
35324;SDS011;35135;47.510;19.036;2023-05-07T13:37:08;1.90;;;1.80;;
35324;SDS011;35135;47.510;19.036;2023-05-07T13:39:33;2.08;;;1.70;;
35324;SDS011;35135;47.510;19.036;2023-05-07T13:41:59;2.00;;;1.80;;
35324;SDS011;35135;47.510;19.036;2023-05-07T13:44:25;2.00;;;1.88;;
35324;SDS011;35135;47.510;19.036;2023-05-07T13:46:51;2.00;;;1.80;;
35324;SDS011;35135;47.510;19.036;2023-05-07T13:49:17;2.28;;;2.00;;
35324;SDS011;35135;47.510;19.036;2023-05-07T13:51:43;2.13;;;1.92;;
35324;SDS011;35135;47.510;19.036;2023-05-07T13:54:08;2.72;;;2.10;;
35324;SDS011;35135;47.510;19.036;2023-05-07T13:56:34;2.22;;;1.83;;
35324;SDS011;35135;47.510;19.036;2023-05-07T13:59:00;1.85;;;1.75;;
35324;SDS011;35135;47.510;19.036;2023-05-07T14:01:26;3.05;;;1.95;;
35324;SDS011;35135;47.510;19.036;2023-05-07T14:03:52;3.63;;;2.08;;
35324;SDS011;35135;47.510;19.036;2023-05-07T14:06:17;2.15;;;1.98;;
35324;SDS011;35135;47.510;19.036;2023-05-07T14:08:43;4.75;;;2.03;;
35324;SDS011;35135;47.510;19.036;2023-05-07T14:11:09;2.40;;;2.20;;
35324;SDS011;35135;47.510;19.036;2023-05-07T14:13:34;2.08;;;1.90;;
35324;SDS011;35135;47.510;19.036;2023-05-07T14:16:00;3.97;;;2.20;;
35324;SDS011;35135;47.510;19.036;2023-05-07T14:18:26;3.00;;;2.65;;
35324;SDS011;35135;47.510;19.036;2023-05-07T14:20:53;4.50;;;2.20;;
35324;SDS011;35135;47.510;19.036;2023-05-07T14:23:19;6.72;;;2.67;;
35324;SDS011;35135;47.510;19.036;2023-05-07T14:25:50;4.35;;;2.50;;
35324;SDS011;35135;47.510;19.036;2023-05-07T14:28:16;4.30;;;2.50;;
35324;SDS011;35135;47.510;19.036;2023-05-07T14:30:42;7.18;;;2.60;;
35324;SDS011;35135;47.510;19.036;2023-05-07T14:33:07;4.60;;;2.63;;
35324;SDS011;35135;47.510;19.036;2023-05-07T14:35:33;5.78;;;2.35;;
35324;SDS011;35135;47.510;19.036;2023-05-07T14:37:59;5.10;;;2.83;;
35324;SDS011;35135;47.510;19.036;2023-05-07T14:40:24;4.00;;;2.83;;
35324;SDS011;35135;47.510;19.036;2023-05-07T14:42:50;10.30;;;3.10;;
35324;SDS011;35135;47.510;19.036;2023-05-07T14:45:16;10.63;;;3.58;;
35324;SDS011;35135;47.510;19.036;2023-05-07T14:47:41;10.48;;;3.97;;
35324;SDS011;35135;47.510;19.036;2023-05-07T14:50:07;11.18;;;3.58;;
35324;SDS011;35135;47.510;19.036;2023-05-07T14:52:33;8.00;;;3.78;;